Time;durP1;ratioP1;P1;durP2;ratioP2;P2;SDS_P1;SDS_P2;PMS_P1;PMS_P2;Temp;Humidity;BMP_temperature;BMP_pressure;BME280_temperature;BME280_humidity;BME280_pressure;Samples;Min_cycle;Max_cycle;Signal;HPM_P1;HPM_P2
2023/01/12 00:03:43;;;;;;;;;;;16.30;68.70;;;;;;10249951;28;93309;-63
2023/01/12 00:08:48;;;;;;;;;;;16.30;68.70;;;;;;10250898;28;94099;-63
2023/01/12 00:13:50;;;;;;;;;;;16.20;68.60;;;;;;10233122;28;92484;-63
2023/01/12 00:18:52;;;;;;;;;;;16.30;68.50;;;;;;10249068;28;93404;-63
2023/01/12 00:23:53;;;;;;;;;;;16.20;68.40;;;;;;10249323;28;93413;-63
2023/01/12 00:28:55;;;;;;;;;;;16.20;68.40;;;;;;10248267;28;95746;-63
2023/01/12 00:33:57;;;;;;;;;;;16.20;68.50;;;;;;10250127;28;94498;-63
2023/01/12 00:38:59;;;;;;;;;;;16.20;68.40;;;;;;10232000;28;93329;-63
2023/01/12 00:49:21;;;;;;;;;;;16.20;68.40;;;;;;10249560;28;93342;-63
2023/01/12 00:54:23;;;;;;;;;;;16.10;68.30;;;;;;10249269;28;93242;-64
2023/01/12 00:59:25;;;;;;;;;;;16.10;68.40;;;;;;10248362;28;93447;-63
2023/01/12 01:04:27;;;;;;;;;;;16.10;68.40;;;;;;10232174;28;92736;-64
2023/01/12 01:09:29;;;;;;;;;;;16.10;68.40;;;;;;10249202;28;94258;-63
2023/01/12 01:14:30;;;;;;;;;;;16.10;68.50;;;;;;10249484;28;94406;-64
2023/01/12 01:19:32;;;;;;;;;;;16.10;68.50;;;;;;10228428;28;96552;-63
2023/01/12 01:24:34;;;;;;;;;;;16.10;68.50;;;;;;10248058;28;93497;-64
2023/01/12 01:29:36;;;;;;;;;;;16.10;68.40;;;;;;10247976;28;93859;-63
2023/01/12 01:34:38;;;;;;;;;;;16.10;68.40;;;;;;10247236;28;93862;-62
2023/01/12 01:39:40;;;;;;;;;;;16.10;68.40;;;;;;10248150;28;92854;-64
2023/01/12 01:44:47;;;;;;;;;;;16.10;68.40;;;;;;10247634;28;93537;-63
2023/01/12 01:49:50;;;;;;;;;;;16.10;68.30;;;;;;10247538;28;93465;-64
2023/01/12 01:54:54;;;;;;;;;;;16.10;68.30;;;;;;10248200;28;92653;-63
2023/01/12 01:59:57;;;;;;;;;;;16.10;68.30;;;;;;10247231;28;93248;-63
2023/01/12 02:04:59;;;;;;;;;;;16.10;68.30;;;;;;10648076;22;93981;-62
2023/01/12 02:10:01;;;;;;;;;;;16.00;69.30;;;;;;10204886;28;97049;-62
2023/01/12 02:20:41;;;;;;;;;;;16.10;68.40;;;;;;10207120;28;96305;-61
2023/01/12 02:25:45;;;;;;;;;;;16.00;68.30;;;;;;10207111;28;94533;-62
2023/01/12 02:30:59;;;;;;;;;;;16.00;68.30;;;;;;10208402;28;94158;-61
2023/01/12 02:36:01;;;;;;;;;;;16.00;68.30;;;;;;10205992;28;93683;-62
2023/01/12 02:41:06;;;;;;;;;;;16.00;68.30;;;;;;10207294;28;94456;-62
2023/01/12 02:46:11;;;;;;;;;;;16.00;68.30;;;;;;10217797;28;93708;-62
2023/01/12 02:51:16;;;;;;;;;;;16.00;68.40;;;;;;10220695;28;94426;-62
2023/01/12 02:56:28;;;;;;;;;;;16.00;68.40;;;;;;10221103;28;95026;-61
2023/01/12 03:01:32;;;;;;;;;;;16.00;68.30;;;;;;10216651;28;95643;-61
2023/01/12 03:06:38;;;;;;;;;;;15.90;68.30;;;;;;10218417;28;93468;-62
2023/01/12 03:11:41;;;;;;;;;;;15.90;68.20;;;;;;10218790;28;93458;-61
2023/01/12 03:16:43;;;;;;;;;;;15.90;68.30;;;;;;10202354;28;93997;-62
2023/01/12 03:21:45;;;;;;;;;;;15.90;68.30;;;;;;10219185;28;93422;-62
2023/01/12 03:26:48;;;;;;;;;;;15.90;68.40;;;;;;10218997;28;94363;-62
2023/01/12 03:31:50;;;;;;;;;;;15.90;68.30;;;;;;10218373;28;93841;-62
2023/01/12 03:37:02;;;;;;;;;;;15.90;68.30;;;;;;10218217;28;93773;-62
2023/01/12 03:42:24;;;;;;;;;;;15.90;68.20;;;;;;10218981;28;93479;-62
2023/01/12 03:47:27;;;;;;;;;;;15.90;68.20;;;;;;10219322;28;94799;-60
2023/01/12 03:52:29;;;;;;;;;;;15.90;68.30;;;;;;10198763;28;95959;-62
2023/01/12 03:57:32;;;;;;;;;;;15.90;68.20;;;;;;10212038;28;94509;-62
2023/01/12 04:02:34;;;;;;;;;;;15.90;68.20;;;;;;10211505;28;93402;-62
2023/01/12 04:07:35;;;;;;;;;;;15.90;68.20;;;;;;10211705;28;93594;-62
2023/01/12 04:12:37;;;;;;;;;;;15.90;68.20;;;;;;10211108;28;93606;-62
2023/01/12 04:17:39;;;;;;;;;;;15.90;68.10;;;;;;10210114;28;93576;-61
2023/01/12 04:22:43;;;;;;;;;;;15.90;68.10;;;;;;10211762;28;94456;-62
2023/01/12 04:27:49;;;;;;;;;;;15.80;68.10;;;;;;10193588;28;92702;-62
2023/01/12 04:32:51;;;;;;;;;;;15.80;68.00;;;;;;10193838;28;93339;-62
2023/01/12 04:37:53;;;;;;;;;;;15.80;68.00;;;;;;10211368;28;93578;-62
2023/01/12 04:43:00;;;;;;;;;;;15.80;68.00;;;;;;10207805;28;97424;-62
2023/01/12 06:05:32;;;;;;;;;;;16.00;68.20;;;;;;10184709;28;94083;-61
2023/01/12 06:10:35;;;;;;;;;;;16.20;68.00;;;;;;10189782;28;94425;-61
2023/01/12 06:15:37;;;;;;;;;;;16.30;67.80;;;;;;10207988;28;93969;-61
2023/01/12 06:20:39;;;;;;;;;;;16.40;67.70;;;;;;10207297;28;92716;-62
2023/01/12 06:25:40;;;;;;;;;;;16.50;67.60;;;;;;10208410;28;92715;-62
2023/01/12 06:30:42;;;;;;;;;;;16.50;67.50;;;;;;10207096;28;94204;-62
2023/01/12 06:35:46;;;;;;;;;;;16.50;67.50;;;;;;10208135;28;93474;-62
2023/01/12 06:40:48;;;;;;;;;;;16.50;67.70;;;;;;10204428;28;96910;-62
2023/01/12 06:45:53;;;;;;;;;;;16.50;67.70;;;;;;10206082;28;94453;-62
2023/01/12 06:51:00;;;;;;;;;;;16.50;67.80;;;;;;10204666;28;93584;-62
2023/01/12 06:56:02;;;;;;;;;;;16.40;67.80;;;;;;10205352;28;94577;-62
2023/01/12 07:01:04;;;;;;;;;;;16.40;69.30;;;;;;10206844;28;93454;-63
2023/01/12 07:06:05;;;;;;;;;;;16.40;70.10;;;;;;10188372;28;93482;-62
2023/01/12 07:11:07;;;;;;;;;;;16.50;70.10;;;;;;10204404;28;92542;-63
2023/01/12 07:16:09;;;;;;;;;;;16.50;70.20;;;;;;10207392;28;92616;-64
2023/01/12 07:21:15;;;;;;;;;;;16.50;70.60;;;;;;10205055;28;93459;-63
2023/01/12 07:26:17;;;;;;;;;;;16.50;70.40;;;;;;10204740;28;94588;-63
2023/01/12 07:31:19;;;;;;;;;;;16.40;70.10;;;;;;10206489;28;96138;-62
2023/01/12 07:36:21;;;;;;;;;;;16.40;70.00;;;;;;10213397;28;96270;-63
2023/01/12 07:46:43;;;;;;;;;;;16.30;69.80;;;;;;10214494;28;94790;-63
2023/01/12 07:51:45;;;;;;;;;;;16.30;69.70;;;;;;10212388;28;93698;-63
2023/01/12 07:56:47;;;;;;;;;;;16.20;69.70;;;;;;10212628;28;94556;-63
2023/01/12 08:01:49;;;;;;;;;;;16.20;69.70;;;;;;10212264;28;92524;-63
2023/01/12 08:06:54;;;;;;;;;;;16.20;69.80;;;;;;10211817;28;93833;-63
2023/01/12 08:11:56;;;;;;;;;;;16.10;69.80;;;;;;10195433;28;94490;-63
2023/01/12 08:17:00;;;;;;;;;;;16.10;70.70;;;;;;10211697;28;93458;-63
2023/01/12 08:22:03;;;;;;;;;;;16.10;69.70;;;;;;10208668;28;95613;-63
2023/01/12 08:27:06;;;;;;;;;;;16.00;69.70;;;;;;10211109;28;93802;-63
2023/01/12 08:32:08;;;;;;;;;;;16.00;69.70;;;;;;10210821;28;93104;-63
2023/01/12 08:37:15;;;;;;;;;;;16.00;69.70;;;;;;10211789;28;93981;-63
2023/01/12 08:42:19;;;;;;;;;;;16.00;69.60;;;;;;10210210;28;93997;-63
2023/01/12 08:47:25;;;;;;;;;;;16.00;69.70;;;;;;10211246;28;93885;-63
2023/01/12 08:52:31;;;;;;;;;;;16.00;69.70;;;;;;10194470;28;94491;-62
2023/01/12 08:57:33;;;;;;;;;;;16.00;69.70;;;;;;10211080;28;93747;-64
2023/01/12 09:02:35;;;;;;;;;;;15.90;69.70;;;;;;10209875;28;93220;-62
2023/01/12 09:07:37;;;;;;;;;;;15.90;69.80;;;;;;10210076;28;94468;-63
2023/01/12 09:12:38;;;;;;;;;;;15.90;69.80;;;;;;10207176;28;96636;-63
2023/01/12 09:17:40;;;;;;;;;;;15.90;69.80;;;;;;10211067;28;94429;-62
2023/01/12 09:22:42;;;;;;;;;;;15.90;69.80;;;;;;10209629;28;93271;-63
2023/01/12 09:27:44;;;;;;;;;;;15.90;69.80;;;;;;10192805;28;94208;-63
2023/01/12 09:32:46;;;;;;;;;;;15.80;69.80;;;;;;10209786;28;93578;-63
2023/01/12 09:37:47;;;;;;;;;;;15.80;69.80;;;;;;10209943;28;93077;-63
2023/01/12 09:48:11;;;;;;;;;;;15.80;69.80;;;;;;10209930;28;92875;-63
2023/01/12 09:53:21;;;;;;;;;;;15.80;69.80;;;;;;10207279;28;94374;-63
2023/01/12 09:58:32;;;;;;;;;;;15.80;69.90;;;;;;10191507;28;93454;-62
2023/01/12 10:03:37;;;;;;;;;;;15.80;69.90;;;;;;10205245;28;96964;-62
2023/01/12 10:08:48;;;;;;;;;;;15.80;70.00;;;;;;10207899;28;93431;-63
2023/01/12 10:14:05;;;;;;;;;;;15.80;69.90;;;;;;10207875;28;93250;-63
2023/01/12 10:19:15;;;;;;;;;;;15.70;69.90;;;;;;10208212;28;93576;-63
2023/01/12 10:24:20;;;;;;;;;;;15.70;69.90;;;;;;10208485;28;94905;-63
2023/01/12 10:29:22;;;;;;;;;;;15.70;70.00;;;;;;10206985;28;93509;-62
2023/01/12 10:34:24;;;;;;;;;;;15.70;69.90;;;;;;10207913;28;93421;-62
2023/01/12 10:39:33;;;;;;;;;;;15.70;70.00;;;;;;10206283;28;93450;-63
2023/01/12 10:44:34;;;;;;;;;;;15.70;70.00;;;;;;10208186;28;93486;-63
2023/01/12 10:49:37;;;;;;;;;;;15.70;70.00;;;;;;10190485;28;93505;-63
2023/01/12 10:54:40;;;;;;;;;;;15.70;70.00;;;;;;10205335;28;96503;-64
2023/01/12 10:59:48;;;;;;;;;;;15.70;70.00;;;;;;10189896;28;93114;-63
2023/01/12 11:04:51;;;;;;;;;;;15.70;70.00;;;;;;10207864;28;93323;-63
2023/01/12 11:09:54;;;;;;;;;;;15.70;70.00;;;;;;10215026;28;94516;-63
2023/01/12 11:15:15;;;;;;;;;;;15.70;70.00;;;;;;10213610;28;93438;-63
2023/01/12 11:20:27;;;;;;;;;;;15.70;70.00;;;;;;10214032;28;93395;-63
2023/01/12 11:25:31;;;;;;;;;;;15.70;70.00;;;;;;10195824;28;93494;-63
2023/01/12 11:30:33;;;;;;;;;;;15.70;70.00;;;;;;10214888;28;93833;-63
2023/01/12 11:35:55;;;;;;;;;;;15.70;70.00;;;;;;10210701;28;93516;-63
2023/01/12 11:40:57;;;;;;;;;;;15.70;70.00;;;;;;10173490;28;93479;-63
2023/01/12 11:46:14;;;;;;;;;;;15.70;70.00;;;;;;10210135;28;96474;-63
2023/01/12 11:51:16;;;;;;;;;;;15.70;70.00;;;;;;10212726;28;94492;-63
2023/01/12 11:56:23;;;;;;;;;;;15.70;70.00;;;;;;10212646;28;94456;-63
2023/01/12 12:01:25;;;;;;;;;;;15.70;70.10;;;;;;10212187;28;94566;-63
2023/01/12 12:06:46;;;;;;;;;;;15.70;70.10;;;;;;10212026;28;94396;-63
2023/01/12 12:11:47;;;;;;;;;;;15.60;70.10;;;;;;10212654;28;94375;-63
2023/01/12 12:17:02;;;;;;;;;;;15.70;70.20;;;;;;10211716;28;94581;-63
2023/01/12 12:22:28;;;;;;;;;;;15.70;70.20;;;;;;10212183;28;92488;-64
2023/01/12 12:27:30;;;;;;;;;;;15.60;70.20;;;;;;10211899;28;94273;-63
2023/01/12 12:32:43;;;;;;;;;;;15.60;70.30;;;;;;10211834;28;93443;-63
2023/01/12 12:37:49;;;;;;;;;;;15.60;70.30;;;;;;10207938;28;96456;-63
2023/01/12 12:49:01;;;;;;;;;;;15.60;70.40;;;;;;10211061;28;93260;-63
2023/01/12 12:54:05;;;;;;;;;;;15.60;70.50;;;;;;10194822;28;94431;-63
2023/01/12 12:59:27;;;;;;;;;;;15.60;70.50;;;;;;10209893;28;93715;-63
2023/01/12 13:04:57;;;;;;;;;;;15.60;70.50;;;;;;10209649;28;93235;-63
2023/01/12 13:10:19;;;;;;;;;;;15.60;70.50;;;;;;10210347;28;92735;-63
2023/01/12 13:15:25;;;;;;;;;;;15.60;70.50;;;;;;10211326;28;93790;-63
2023/01/12 13:20:35;;;;;;;;;;;15.60;70.60;;;;;;10210358;28;93175;-63
2023/01/12 13:25:41;;;;;;;;;;;15.60;70.50;;;;;;10191961;28;94516;-63
2023/01/12 13:30:49;;;;;;;;;;;15.60;70.60;;;;;;10201755;28;96886;-63
2023/01/12 13:35:51;;;;;;;;;;;15.60;70.60;;;;;;10210659;28;93702;-63
2023/01/12 13:41:02;;;;;;;;;;;15.60;70.70;;;;;;10207727;28;93450;-63
2023/01/12 13:46:11;;;;;;;;;;;15.60;70.60;;;;;;10208535;28;93136;-63
2023/01/12 13:51:20;;;;;;;;;;;15.60;70.60;;;;;;10209184;28;94489;-63
2023/01/12 13:56:22;;;;;;;;;;;15.60;70.60;;;;;;10209125;28;94495;-63
2023/01/12 14:01:28;;;;;;;;;;;15.60;70.70;;;;;;10207050;28;92565;-63
2023/01/12 14:06:48;;;;;;;;;;;15.60;70.70;;;;;;10190820;28;94129;-63
2023/01/12 14:12:03;;;;;;;;;;;15.60;70.70;;;;;;10208159;28;95914;-63
2023/01/12 14:22:33;;;;;;;;;;;15.60;70.70;;;;;;10205259;28;96973;-64
2023/01/12 14:27:34;;;;;;;;;;;15.60;70.70;;;;;;10207660;28;93500;-63
2023/01/12 14:32:36;;;;;;;;;;;15.60;70.70;;;;;;10191140;28;93760;-63
2023/01/12 14:37:38;;;;;;;;;;;15.60;70.70;;;;;;10206619;28;94372;-63
2023/01/12 14:48:23;;;;;;;;;;;15.60;70.70;;;;;;10207220;28;93627;-63
2023/01/12 14:53:33;;;;;;;;;;;15.60;70.70;;;;;;10207985;28;93249;-63
2023/01/12 14:58:34;;;;;;;;;;;15.60;70.70;;;;;;10208749;28;93746;-63
2023/01/12 15:03:37;;;;;;;;;;;15.50;70.70;;;;;;10189884;28;93510;-63
2023/01/12 15:08:51;;;;;;;;;;;15.60;70.70;;;;;;10207557;28;93856;-63
2023/01/12 15:13:57;;;;;;;;;;;15.60;70.70;;;;;;10203725;28;95820;-63
2023/01/12 15:29:46;;;;;;;;;;;15.50;70.80;;;;;;10205903;28;93680;-63
2023/01/12 15:34:48;;;;;;;;;;;15.50;70.80;;;;;;10206244;28;94472;-63
2023/01/12 15:39:50;;;;;;;;;;;15.50;70.80;;;;;;10205999;28;94419;-63
2023/01/12 15:44:52;;;;;;;;;;;15.50;70.80;;;;;;10204856;28;93376;-63
2023/01/12 15:49:54;;;;;;;;;;;15.50;70.80;;;;;;10206278;28;92235;-63
2023/01/12 15:54:56;;;;;;;;;;;15.50;70.80;;;;;;10213004;28;93528;-63
2023/01/12 15:59:58;;;;;;;;;;;15.50;70.80;;;;;;10212042;28;93473;-63
2023/01/12 16:05:01;;;;;;;;;;;15.50;70.80;;;;;;10209094;28;95435;-63
2023/01/12 16:10:03;;;;;;;;;;;15.50;70.80;;;;;;10212018;28;93447;-63
2023/01/12 16:15:05;;;;;;;;;;;15.50;70.60;;;;;;10211162;28;93314;-62
2023/01/12 16:20:08;;;;;;;;;;;15.60;70.80;;;;;;10211976;28;93249;-63
2023/01/12 16:25:10;;;;;;;;;;;15.70;70.70;;;;;;10210967;28;93719;-63
2023/01/12 16:30:13;;;;;;;;;;;16.00;70.30;;;;;;10211365;28;93653;-62
2023/01/12 16:35:15;;;;;;;;;;;16.40;69.80;;;;;;10210636;28;94539;-62
2023/01/12 16:40:17;;;;;;;;;;;16.70;69.00;;;;;;10211845;28;93099;-62
2023/01/12 16:45:19;;;;;;;;;;;17.00;68.40;;;;;;10210863;28;93586;-62
2023/01/12 16:50:21;;;;;;;;;;;17.20;67.70;;;;;;10210099;28;93953;-62
2023/01/12 16:55:23;;;;;;;;;;;17.40;67.20;;;;;;10208252;28;95937;-62
2023/01/12 17:00:26;;;;;;;;;;;17.60;66.80;;;;;;10210451;28;93326;-62
2023/01/12 17:05:28;;;;;;;;;;;17.50;66.50;;;;;;10209755;28;94900;-62
2023/01/12 17:10:30;;;;;;;;;;;17.60;66.60;;;;;;10210571;28;93615;-62
2023/01/12 17:15:33;;;;;;;;;;;17.60;66.50;;;;;;10209943;28;93406;-63
2023/01/12 17:20:35;;;;;;;;;;;17.60;66.50;;;;;;10209277;28;93774;-63
2023/01/12 17:25:37;;;;;;;;;;;17.60;66.50;;;;;;10192286;28;94737;-62
2023/01/12 17:30:40;;;;;;;;;;;17.70;66.40;;;;;;10210167;28;92692;-62
2023/01/12 17:35:42;;;;;;;;;;;17.90;66.30;;;;;;10207423;28;92873;-64
2023/01/12 17:40:44;;;;;;;;;;;18.00;65.90;;;;;;10209123;28;94610;-63
2023/01/12 17:45:46;;;;;;;;;;;18.20;66.10;;;;;;10206853;28;95872;-62
2023/01/12 17:50:47;;;;;;;;;;;18.20;70.00;;;;;;10210189;28;92891;-64
2023/01/12 17:55:49;;;;;;;;;;;18.30;72.40;;;;;;10208738;28;92862;-62
2023/01/12 18:00:53;;;;;;;;;;;18.40;73.70;;;;;;10202980;28;93264;-62
2023/01/12 18:05:55;;;;;;;;;;;18.40;74.00;;;;;;10206385;28;93664;-63
2023/01/12 18:11:06;;;;;;;;;;;18.50;73.80;;;;;;10207734;28;94414;-62
2023/01/12 18:16:09;;;;;;;;;;;18.40;73.10;;;;;;10207817;28;93915;-62
2023/01/12 18:21:13;;;;;;;;;;;18.30;72.80;;;;;;10207606;28;92665;-62
2023/01/12 18:26:16;;;;;;;;;;;18.20;72.30;;;;;;10207613;28;94710;-62
2023/01/12 18:31:20;;;;;;;;;;;18.10;72.10;;;;;;10206113;28;92651;-62
2023/01/12 18:36:23;;;;;;;;;;;18.20;71.70;;;;;;10204651;28;96928;-63
2023/01/12 18:57:27;;;;;;;;;;;18.30;70.50;;;;;;10205850;28;94587;-62
2023/01/12 19:02:29;;;;;;;;;;;18.30;70.40;;;;;;10206054;28;94778;-62
2023/01/12 19:07:49;;;;;;;;;;;18.30;70.30;;;;;;10205218;28;93646;-62
2023/01/12 19:17:25;;;;;;;;;;;18.40;70.00;;;;;;10207525;28;93400;-62
2023/01/12 19:18:13;;;;;;;;;;;18.40;69.90;;;;;;10205292;28;94494;-63
2023/01/12 19:28:34;;;;;;;;;;;18.30;70.00;;;;;;10209110;28;95873;-63
2023/01/12 19:33:36;;;;;;;;;;;18.30;70.00;;;;;;10212482;28;93719;-63
2023/01/12 19:38:41;;;;;;;;;;;18.40;69.80;;;;;;10212397;28;93840;-63
2023/01/12 19:43:46;;;;;;;;;;;18.40;69.60;;;;;;10210595;28;94831;-63
2023/01/12 19:48:48;;;;;;;;;;;18.30;69.60;;;;;;10213064;28;93389;-63
2023/01/12 19:53:50;;;;;;;;;;;18.20;69.60;;;;;;10195253;28;94265;-63
2023/01/12 19:58:53;;;;;;;;;;;18.20;69.70;;;;;;10194063;28;94487;-63
2023/01/12 20:03:54;;;;;;;;;;;18.30;69.70;;;;;;10195068;28;92715;-63
2023/01/12 20:08:56;;;;;;;;;;;18.40;69.30;;;;;;10211285;28;93251;-63
2023/01/12 20:13:58;;;;;;;;;;;18.50;69.20;;;;;;10210318;28;93459;-63
2023/01/12 20:19:00;;;;;;;;;;;18.40;69.10;;;;;;10209266;28;95680;-62
2023/01/12 20:24:02;;;;;;;;;;;18.30;69.20;;;;;;10211754;28;94449;-62
2023/01/12 20:29:03;;;;;;;;;;;18.20;70.50;;;;;;10210426;28;93447;-62
2023/01/12 20:34:05;;;;;;;;;;;18.20;69.60;;;;;;10210431;28;94456;-62
2023/01/12 20:39:10;;;;;;;;;;;18.20;69.70;;;;;;10210478;28;94517;-62
2023/01/12 20:44:13;;;;;;;;;;;18.20;69.60;;;;;;10209607;28;93737;-62
2023/01/12 20:49:15;;;;;;;;;;;18.30;69.50;;;;;;10210421;28;93100;-62
2023/01/12 20:54:17;;;;;;;;;;;18.20;69.40;;;;;;10202821;28;93638;-62
2023/01/12 20:59:18;;;;;;;;;;;18.20;69.50;;;;;;10210493;28;93421;-62
2023/01/12 21:04:20;;;;;;;;;;;18.10;69.70;;;;;;10208779;28;94462;-62
2023/01/12 21:09:22;;;;;;;;;;;18.00;69.80;;;;;;10207331;28;96878;-63
2023/01/12 21:14:25;;;;;;;;;;;17.90;69.90;;;;;;10208956;28;93606;-62
2023/01/12 21:19:27;;;;;;;;;;;17.80;70.10;;;;;;10209337;28;93255;-62
2023/01/12 21:24:29;;;;;;;;;;;17.70;70.30;;;;;;10209548;28;93479;-63
2023/01/12 21:29:31;;;;;;;;;;;17.70;70.40;;;;;;10208917;28;92518;-63
2023/01/12 21:34:33;;;;;;;;;;;17.60;70.40;;;;;;10207825;28;94072;-62
2023/01/12 21:39:34;;;;;;;;;;;17.50;71.10;;;;;;10208801;28;94625;-62
2023/01/12 21:44:36;;;;;;;;;;;17.50;71.00;;;;;;10207325;28;91797;-62
2023/01/12 21:49:38;;;;;;;;;;;17.50;70.90;;;;;;10205710;28;93603;-63
2023/01/12 21:54:40;;;;;;;;;;;17.40;70.90;;;;;;10207573;28;94372;-63
2023/01/12 21:59:43;;;;;;;;;;;17.40;70.90;;;;;;10204348;28;115169;-63
2023/01/12 22:04:45;;;;;;;;;;;17.30;70.80;;;;;;10205398;28;94852;-63
2023/01/12 22:09:47;;;;;;;;;;;17.30;70.70;;;;;;10208192;28;94727;-63
2023/01/12 22:14:49;;;;;;;;;;;17.20;70.70;;;;;;10206821;28;94576;-63
2023/01/12 22:19:51;;;;;;;;;;;17.20;70.70;;;;;;10207679;28;94558;-63
2023/01/12 22:24:53;;;;;;;;;;;17.10;70.70;;;;;;10207273;28;94543;-63
2023/01/12 22:29:56;;;;;;;;;;;17.10;70.60;;;;;;10189784;28;93612;-63
2023/01/12 22:34:57;;;;;;;;;;;17.10;70.70;;;;;;10190071;28;93314;-63
2023/01/12 22:39:59;;;;;;;;;;;17.00;70.60;;;;;;10206494;28;93533;-63
2023/01/12 22:45:01;;;;;;;;;;;16.90;70.70;;;;;;10206804;28;93609;-63
2023/01/12 22:50:03;;;;;;;;;;;16.90;70.70;;;;;;10204527;28;96882;-63
2023/01/12 22:55:05;;;;;;;;;;;16.80;70.60;;;;;;10204296;28;94134;-63
2023/01/12 23:00:11;;;;;;;;;;;16.80;70.60;;;;;;10208837;28;94097;-63
2023/01/12 23:05:13;;;;;;;;;;;16.80;70.50;;;;;;10212057;28;93522;-63
2023/01/12 23:10:15;;;;;;;;;;;16.70;70.30;;;;;;10213745;28;94526;-63
2023/01/12 23:15:17;;;;;;;;;;;16.70;70.10;;;;;;10212886;28;92617;-62
2023/01/12 23:20:19;;;;;;;;;;;16.70;70.00;;;;;;10212445;28;93435;-64
2023/01/12 23:25:21;;;;;;;;;;;16.70;70.00;;;;;;10212706;28;92518;-63
2023/01/12 23:30:23;;;;;;;;;;;16.60;70.00;;;;;;10195765;28;93600;-63
2023/01/12 23:35:25;;;;;;;;;;;16.60;69.90;;;;;;10212235;28;93523;-63
2023/01/12 23:40:27;;;;;;;;;;;16.60;69.70;;;;;;10210199;28;96035;-63
2023/01/12 23:45:29;;;;;;;;;;;16.60;69.70;;;;;;10194317;28;93653;-63
2023/01/12 23:50:30;;;;;;;;;;;16.50;69.70;;;;;;10211618;28;93669;-63
2023/01/12 23:55:32;;;;;;;;;;;16.50;69.60;;;;;;10211890;28;93592;-63
